aviador You're here:

OMAA Decoded Metar

ABU DHABI in UNITED ARAB EMIRATES
Report Time2017-06-25 20:00:00
UTC Time2017-06-25 20:42:49
Flight Rules vfr VFR
Wind270° at 07 kt
W.Decomp.*RWY 31: 5.3 kt HW 4.6 kt LCW
W.Rank270° ranks 27
Current wind is above 270° avg. (6.4)
Visibility9999 m
Phenomena:N/A
Clouds:N/A
Expected CloudBase > 2,800 ft AGL from Temp-Dew spread
CeilingNone
Temp33°C (ISA +18)
Dew Point26°C (67% RH)
Heat Index42.2°C
QNH0998 hPa
Density Alt3,107 ft
Elevation89 ft
Report Wrong Elevation
Raw Report
METAR OMAA 252000Z 27007KT CAVOK 33/26 Q0998 BECMG 19005KT=

Extra information for OMAA:More info

Metar Taf Metar & Taf Last 4 Metars F.Rules Stats Wind Profile Meteogram Temp Stats Airport Information Weather charts Add Link Nearby VenuesMetar ALERT Operation Metar Decoded Social comments